Time;durP1;ratioP1;P1;durP2;ratioP2;P2;SDS_P1;SDS_P2;PMS_P1;PMS_P2;Temp;Humidity;BMP_temperature;BMP_pressure;BME280_temperature;BME280_humidity;BME280_pressure;Samples;Min_cycle;Max_cycle;Signal;HPM_P1;HPM_P2
2022/05/01 00:00:47;;;;;;;2.65;1.85;;;;;;;-140.79;100.00;63287.88;5044763;28;20393;-52
2022/05/01 00:03:31;;;;;;;2.70;1.90;;;;;;;-140.79;100.00;63287.88;5044375;28;20432;-52
2022/05/01 00:05:58;;;;;;;3.00;1.83;;;;;;;-140.79;100.00;63287.88;5045839;28;20807;-55
2022/05/01 00:08:24;;;;;;;2.30;1.80;;;;;;;-140.79;100.00;63287.88;5043612;28;20094;-52
2022/05/01 00:10:49;;;;;;;2.58;1.85;;;;;;;-140.79;100.00;63287.88;5043741;28;20021;-52
2022/05/01 00:13:15;;;;;;;2.60;1.90;;;;;;;-140.79;100.00;63287.88;5044870;28;20017;-53
2022/05/01 00:15:42;;;;;;;2.60;1.88;;;;;;;-140.79;100.00;63287.88;5043716;28;20047;-53
2022/05/01 00:18:07;;;;;;;3.10;2.10;;;;;;;-140.79;100.00;63287.88;5045712;28;20115;-53
2022/05/01 00:20:33;;;;;;;2.80;2.13;;;;;;;-140.79;100.00;63287.88;5046148;28;20025;-53
2022/05/01 00:22:59;;;;;;;2.58;2.10;;;;;;;-140.79;100.00;63287.88;5045013;28;20047;-53
2022/05/01 00:25:25;;;;;;;3.05;1.98;;;;;;;-140.79;100.00;63287.88;5044910;28;20044;-53
2022/05/01 00:27:50;;;;;;;3.22;1.90;;;;;;;-140.79;100.00;63287.88;5044283;28;20402;-54
2022/05/01 00:30:15;;;;;;;2.70;2.05;;;;;;;-140.79;100.00;63287.88;5044160;28;20017;-54
2022/05/01 00:38:09;;;;;;;2.95;1.98;;;;;;;-140.79;100.00;63287.88;5045206;28;20960;-52
2022/05/01 00:40:35;;;;;;;3.28;1.83;;;;;;;-140.79;100.00;63287.88;5044908;28;20033;-54
2022/05/01 00:43:01;;;;;;;2.45;1.80;;;;;;;-140.79;100.00;63287.88;5044997;28;20333;-53
2022/05/01 00:45:27;;;;;;;2.50;1.77;;;;;;;-140.79;100.00;63287.88;5025425;28;20028;-52
2022/05/01 00:47:52;;;;;;;2.85;1.90;;;;;;;-140.79;100.00;63287.88;5043699;28;20473;-50
2022/05/01 00:50:18;;;;;;;2.40;1.75;;;;;;;-140.79;100.00;63287.88;5044221;28;20060;-53
2022/05/01 00:52:43;;;;;;;2.45;1.65;;;;;;;-140.79;100.00;63287.88;5044526;28;20446;-51
2022/05/01 00:55:09;;;;;;;3.03;2.00;;;;;;;-140.79;100.00;63287.88;5041956;28;20048;-52
2022/05/01 00:57:34;;;;;;;2.50;1.80;;;;;;;-140.79;100.00;63287.88;5026727;28;20037;-52
2022/05/01 00:59:59;;;;;;;3.45;1.90;;;;;;;-140.79;100.00;63287.88;5043819;28;20032;-51
2022/05/01 01:02:25;;;;;;;2.60;1.95;;;;;;;-140.79;100.00;63287.88;5007803;28;20030;-52
2022/05/01 01:04:51;;;;;;;2.80;1.70;;;;;;;-140.79;100.00;63287.88;5040345;28;20135;-53
2022/05/01 01:07:16;;;;;;;2.63;1.73;;;;;;;-140.79;100.00;63287.88;5043763;28;20749;-52
2022/05/01 01:09:42;;;;;;;3.30;1.77;;;;;;;-140.79;100.00;63287.88;5042104;28;20718;-52
2022/05/01 01:15:08;;;;;;;2.35;1.90;;;;;;;-140.79;100.00;63287.88;5044732;28;20116;-52
2022/05/01 01:17:36;;;;;;;1.90;1.70;;;;;;;-140.79;100.00;63287.88;5045056;28;20024;-54
2022/05/01 01:20:07;;;;;;;2.15;1.52;;;;;;;-140.79;100.00;63287.88;5045305;28;20033;-54
2022/05/01 01:22:32;;;;;;;2.40;1.75;;;;;;;-140.79;100.00;63287.88;5045039;28;20083;-54
2022/05/01 01:24:58;;;;;;;4.00;2.30;;;;;;;-140.79;100.00;63287.88;5051811;28;20032;-53
2022/05/01 01:27:23;;;;;;;2.83;2.05;;;;;;;-140.79;100.00;63287.88;5038063;28;20029;-54
2022/05/01 01:32:35;;;;;;;2.35;1.80;;;;;;;-140.79;100.00;63287.88;5037690;28;20079;-53
2022/05/01 01:35:00;;;;;;;2.30;2.00;;;;;;;-140.79;100.00;63287.88;5046548;28;20101;-53
2022/05/01 01:37:26;;;;;;;2.40;1.70;;;;;;;-140.79;100.00;63287.88;5025059;28;20246;-52
2022/05/01 01:39:51;;;;;;;2.85;2.17;;;;;;;-140.79;100.00;63287.88;5044284;28;20033;-53
2022/05/01 01:42:17;;;;;;;2.50;1.90;;;;;;;-140.79;100.00;63287.88;5027521;28;20681;-52
2022/05/01 01:44:42;;;;;;;2.20;1.80;;;;;;;-140.79;100.00;63287.88;5030848;28;20036;-52
2022/05/01 01:47:11;;;;;;;2.85;1.90;;;;;;;-140.79;100.00;63287.88;5030626;28;20041;-52
2022/05/01 01:49:36;;;;;;;2.92;1.73;;;;;;;-140.79;100.00;63287.88;5030246;28;20025;-51
2022/05/01 01:52:02;;;;;;;1.88;1.65;;;;;;;-140.79;100.00;63287.88;5047608;28;20029;-53
2022/05/01 01:54:28;;;;;;;2.88;2.10;;;;;;;-140.79;100.00;63287.88;5046444;28;20031;-54
2022/05/01 01:56:59;;;;;;;2.13;1.80;;;;;;;-140.79;100.00;63287.88;5047736;28;20021;-53
2022/05/01 01:59:25;;;;;;;2.35;2.05;;;;;;;-140.79;100.00;63287.88;5046976;28;20056;-53
2022/05/01 02:01:50;;;;;;;2.60;2.00;;;;;;;-140.79;100.00;63287.88;5046896;28;20028;-52
2022/05/01 02:04:16;;;;;;;2.20;1.80;;;;;;;-140.79;100.00;63287.88;5046562;28;20047;-53
2022/05/01 02:06:43;;;;;;;3.20;1.92;;;;;;;-140.79;100.00;63287.88;5045943;28;20483;-53
2022/05/01 02:09:08;;;;;;;2.78;2.08;;;;;;;-140.79;100.00;63287.88;5046901;28;20025;-51
2022/05/01 02:11:35;;;;;;;2.58;2.00;;;;;;;-140.79;100.00;63287.88;5045555;28;20040;-52
2022/05/01 02:14:01;;;;;;;2.38;1.83;;;;;;;-140.79;100.00;63287.88;5047504;28;20127;-52
2022/05/01 02:16:26;;;;;;;2.95;2.05;;;;;;;-140.79;100.00;63287.88;5046256;28;20068;-51
2022/05/01 02:18:52;;;;;;;2.45;1.77;;;;;;;-140.79;100.00;63287.88;5046766;28;20095;-52
2022/05/01 02:21:36;;;;;;;3.33;2.20;;;;;;;-140.79;100.00;63287.88;5047025;28;20040;-52
2022/05/01 02:24:10;;;;;;;2.45;1.95;;;;;;;-140.79;100.00;63287.88;5046818;28;20055;-53
2022/05/01 02:26:36;;;;;;;2.88;1.92;;;;;;;-140.79;100.00;63287.88;5047306;28;20102;-52
2022/05/01 02:29:12;;;;;;;2.85;2.15;;;;;;;-140.79;100.00;63287.88;5046461;28;20165;-52
2022/05/01 02:31:43;;;;;;;2.92;2.00;;;;;;;-140.79;100.00;63287.88;5046477;28;20029;-50
2022/05/01 02:34:09;;;;;;;2.65;2.00;;;;;;;-140.79;100.00;63287.88;5044118;28;20048;-52
2022/05/01 02:36:34;;;;;;;3.05;2.38;;;;;;;-140.79;100.00;63287.88;5028446;28;20637;-51
2022/05/01 02:39:00;;;;;;;3.20;2.03;;;;;;;-140.79;100.00;63287.88;5046082;28;20025;-53
2022/05/01 02:41:26;;;;;;;2.47;1.88;;;;;;;-140.79;100.00;63287.88;5047364;28;20025;-52
2022/05/01 02:43:52;;;;;;;2.80;2.03;;;;;;;-140.79;100.00;63287.88;5046266;28;20128;-53
2022/05/01 02:46:18;;;;;;;3.08;1.90;;;;;;;-140.79;100.00;63287.88;5047163;28;20090;-53
2022/05/01 02:48:44;;;;;;;3.10;2.00;;;;;;;-140.79;100.00;63287.88;5044194;28;20033;-53
2022/05/01 02:51:10;;;;;;;2.85;2.20;;;;;;;-140.79;100.00;63287.88;5044511;28;20044;-52
2022/05/01 02:53:35;;;;;;;3.28;2.33;;;;;;;-140.79;100.00;63287.88;5046826;28;20035;-56
2022/05/01 02:56:01;;;;;;;3.35;2.13;;;;;;;-140.79;100.00;63287.88;5046646;28;20021;-53
2022/05/01 02:58:27;;;;;;;2.72;2.13;;;;;;;-140.79;100.00;63287.88;5047177;28;20024;-52
2022/05/01 03:00:53;;;;;;;2.63;2.08;;;;;;;-140.79;100.00;63287.88;5045960;28;20025;-53
2022/05/01 03:03:18;;;;;;;3.25;1.98;;;;;;;-140.79;100.00;63287.88;5044808;28;20752;-49
2022/05/01 03:05:44;;;;;;;3.85;2.15;;;;;;;-140.79;100.00;63287.88;5045030;28;20486;-53
2022/05/01 03:08:12;;;;;;;3.05;2.05;;;;;;;-140.79;100.00;63287.88;5046121;28;20512;-51
2022/05/01 03:10:37;;;;;;;3.47;2.05;;;;;;;-140.79;100.00;63287.88;5045502;28;20033;-52
2022/05/01 03:13:03;;;;;;;3.17;2.20;;;;;;;-140.79;100.00;63287.88;5045516;28;20025;-53
2022/05/01 03:15:28;;;;;;;4.03;2.40;;;;;;;-140.79;100.00;63287.88;5027264;28;20033;-53
2022/05/01 03:23:23;;;;;;;2.92;2.22;;;;;;;-140.79;100.00;63287.88;5045231;28;20051;-52
2022/05/01 03:25:48;;;;;;;2.85;2.13;;;;;;;-140.79;100.00;63287.88;5046278;28;20053;-52
2022/05/01 03:28:14;;;;;;;4.63;2.47;;;;;;;-140.79;100.00;63287.88;5046006;28;20037;-53
2022/05/01 03:30:39;;;;;;;3.70;2.10;;;;;;;-140.79;100.00;63287.88;5045298;28;20021;-52
2022/05/01 03:33:07;;;;;;;2.97;2.15;;;;;;;-140.79;100.00;63287.88;5045760;28;20098;-52
2022/05/01 03:35:35;;;;;;;3.83;2.42;;;;;;;-140.79;100.00;63287.88;5045047;28;20766;-53
2022/05/01 03:38:04;;;;;;;2.72;2.05;;;;;;;-140.79;100.00;63287.88;5045499;28;20124;-52
2022/05/01 03:40:29;;;;;;;2.67;2.08;;;;;;;-140.79;100.00;63287.88;5044552;28;20116;-50
2022/05/01 03:42:56;;;;;;;2.80;2.20;;;;;;;-140.79;100.00;63287.88;5045224;28;20191;-52
2022/05/01 03:45:21;;;;;;;2.85;2.20;;;;;;;-140.79;100.00;63287.88;5044652;28;20084;-53
2022/05/01 03:47:47;;;;;;;3.05;2.42;;;;;;;-140.79;100.00;63287.88;5027903;28;20037;-54
2022/05/01 03:50:13;;;;;;;3.88;2.50;;;;;;;-140.79;100.00;63287.88;5043909;28;20062;-51
2022/05/01 03:52:39;;;;;;;4.68;2.40;;;;;;;-140.79;100.00;63287.88;5044538;28;20820;-54
2022/05/01 03:55:05;;;;;;;4.97;2.85;;;;;;;-140.79;100.00;63287.88;5044322;28;20633;-53
2022/05/01 03:57:32;;;;;;;6.43;2.28;;;;;;;-140.79;100.00;63287.88;5046014;28;20103;-53
2022/05/01 03:59:58;;;;;;;3.45;2.40;;;;;;;-140.79;100.00;63287.88;5045069;28;20031;-55
2022/05/01 04:02:24;;;;;;;3.67;2.53;;;;;;;-140.79;100.00;63287.88;5026504;28;20026;-54
2022/05/01 04:04:49;;;;;;;5.63;2.55;;;;;;;-140.79;100.00;63287.88;5024623;28;20029;-54
2022/05/01 04:07:15;;;;;;;3.75;2.25;;;;;;;-140.79;100.00;63287.88;4999200;28;20067;-54
2022/05/01 04:09:40;;;;;;;3.38;2.40;;;;;;;-140.79;100.00;63287.88;5026748;28;20108;-55
2022/05/01 04:12:06;;;;;;;3.33;2.40;;;;;;;-140.79;100.00;63287.88;5031107;28;20145;-55
2022/05/01 04:14:32;;;;;;;4.05;2.67;;;;;;;-140.79;100.00;63287.88;5008153;28;20067;-54
2022/05/01 04:16:59;;;;;;;3.17;2.42;;;;;;;-140.79;100.00;63287.88;5023831;28;20045;-53
2022/05/01 04:19:25;;;;;;;3.72;2.22;;;;;;;-140.79;100.00;63287.88;5025101;28;20320;-54
2022/05/01 04:21:50;;;;;;;3.38;2.20;;;;;;;-140.79;100.00;63287.88;5021036;28;20124;-52
2022/05/01 04:24:16;;;;;;;4.13;2.00;;;;;;;-140.79;100.00;63287.88;5021775;28;20037;-52
2022/05/01 04:26:41;;;;;;;3.45;2.20;;;;;;;-140.79;100.00;63287.88;5027111;28;20060;-53
2022/05/01 04:31:51;;;;;;;2.92;2.38;;;;;;;-140.79;100.00;63287.88;5024436;28;20143;-53
2022/05/01 04:34:17;;;;;;;3.15;2.20;;;;;;;-140.79;100.00;63287.88;5032012;28;20036;-53
2022/05/01 04:36:43;;;;;;;3.92;2.70;;;;;;;-140.79;100.00;63287.88;5028233;28;20496;-53
2022/05/01 04:39:09;;;;;;;3.40;2.42;;;;;;;-140.79;100.00;63287.88;5045297;28;20032;-53
2022/05/01 04:41:35;;;;;;;4.68;2.40;;;;;;;-140.79;100.00;63287.88;5044434;28;20031;-55
2022/05/01 04:44:00;;;;;;;4.75;2.40;;;;;;;-140.79;100.00;63287.88;5045260;28;20021;-52
2022/05/01 04:46:26;;;;;;;3.80;2.33;;;;;;;-140.79;100.00;63287.88;5045185;28;20083;-54
2022/05/01 04:48:52;;;;;;;3.33;2.35;;;;;;;-140.79;100.00;63287.88;5046259;28;20032;-57
2022/05/01 04:51:18;;;;;;;3.90;2.28;;;;;;;-140.79;100.00;63287.88;5026167;28;20033;-54
2022/05/01 04:53:43;;;;;;;3.65;2.38;;;;;;;-140.79;100.00;63287.88;5044766;28;20056;-53
2022/05/01 04:58:53;;;;;;;4.50;2.28;;;;;;;-140.79;100.00;63287.88;5045319;28;20044;-56
2022/05/01 05:01:19;;;;;;;2.97;2.22;;;;;;;-140.79;100.00;63287.88;5045060;28;20021;-56
2022/05/01 05:03:45;;;;;;;4.25;2.67;;;;;;;-140.79;100.00;63287.88;5043449;28;20151;-54
2022/05/01 05:06:10;;;;;;;3.60;2.50;;;;;;;-140.79;100.00;63287.88;5017688;28;20044;-54
2022/05/01 05:11:20;;;;;;;3.58;2.40;;;;;;;-140.79;100.00;63287.88;5044066;28;20099;-54
2022/05/01 05:13:46;;;;;;;4.82;2.70;;;;;;;-140.79;100.00;63287.88;5044371;28;20033;-55
2022/05/01 05:16:14;;;;;;;3.85;2.78;;;;;;;-140.79;100.00;63287.88;5045301;28;20036;-54
2022/05/01 05:18:42;;;;;;;3.42;2.50;;;;;;;-140.79;100.00;63287.88;5026772;28;20517;-52
2022/05/01 05:21:07;;;;;;;4.20;2.60;;;;;;;-140.79;100.00;63287.88;5027653;28;20415;-51
2022/05/01 05:23:33;;;;;;;4.55;2.72;;;;;;;-140.79;100.00;63287.88;5045114;28;20021;-54
2022/05/01 05:25:58;;;;;;;4.25;2.70;;;;;;;-140.79;100.00;63287.88;5044916;28;20527;-53
2022/05/01 05:28:25;;;;;;;4.82;2.85;;;;;;;-140.79;100.00;63287.88;5043660;28;20045;-54
2022/05/01 05:30:50;;;;;;;2.95;2.33;;;;;;;-140.79;100.00;63287.88;5026659;28;20033;-55
2022/05/01 05:33:16;;;;;;;5.20;3.00;;;;;;;-140.79;100.00;63287.88;5026832;28;20036;-54
2022/05/01 05:35:41;;;;;;;3.22;2.40;;;;;;;-140.79;100.00;63287.88;5027043;28;20044;-53
2022/05/01 05:38:07;;;;;;;3.10;2.40;;;;;;;-140.79;100.00;63287.88;5024666;28;20488;-54
2022/05/01 05:40:32;;;;;;;2.92;2.45;;;;;;;-140.79;100.00;63287.88;5042422;28;20484;-54
2022/05/01 05:42:58;;;;;;;5.15;2.78;;;;;;;-140.79;100.00;63287.88;5044882;28;20044;-55
2022/05/01 05:45:23;;;;;;;3.85;2.40;;;;;;;-140.79;100.00;63287.88;5026963;28;20024;-54
2022/05/01 05:47:49;;;;;;;4.20;2.50;;;;;;;-140.79;100.00;63287.88;5042985;28;20485;-53
2022/05/01 05:50:14;;;;;;;4.18;2.15;;;;;;;-140.79;100.00;63287.88;5044020;28;20040;-54
2022/05/01 05:52:40;;;;;;;2.92;2.20;;;;;;;-140.79;100.00;63287.88;5024952;28;20044;-52
2022/05/01 05:55:06;;;;;;;3.55;2.05;;;;;;;-140.79;100.00;63287.88;5042935;28;20029;-53
2022/05/01 05:57:32;;;;;;;3.08;2.47;;;;;;;-140.79;100.00;63287.88;5042735;28;20013;-53
2022/05/01 05:59:57;;;;;;;3.28;2.55;;;;;;;-140.79;100.00;63287.88;5038951;28;20025;-51
2022/05/01 06:02:23;;;;;;;3.38;2.20;;;;;;;-140.79;100.00;63287.88;5038498;28;20021;-54
2022/05/01 06:04:48;;;;;;;3.42;2.55;;;;;;;-140.79;100.00;63287.88;5041701;28;20032;-54
2022/05/01 06:07:14;;;;;;;5.22;2.40;;;;;;;-140.79;100.00;63287.88;5042579;28;20037;-54
2022/05/01 06:09:39;;;;;;;3.25;2.42;;;;;;;-140.79;100.00;63287.88;5043808;28;20032;-51
2022/05/01 06:12:05;;;;;;;4.07;2.50;;;;;;;-140.79;100.00;63287.88;5043373;28;20442;-54
2022/05/01 06:14:30;;;;;;;3.88;2.50;;;;;;;-140.79;100.00;63287.88;5008535;28;20704;-53
2022/05/01 06:16:56;;;;;;;3.75;2.33;;;;;;;-140.79;100.00;63287.88;5041759;28;20032;-53
2022/05/01 06:19:21;;;;;;;3.28;2.17;;;;;;;-140.79;100.00;63287.88;5008713;28;20056;-55
2022/05/01 06:21:47;;;;;;;5.10;2.47;;;;;;;-140.79;100.00;63287.88;5024683;28;20417;-55
2022/05/01 06:24:12;;;;;;;2.97;2.25;;;;;;;-140.79;100.00;63287.88;5042777;28;20500;-53
2022/05/01 06:26:38;;;;;;;5.28;3.78;;;;;;;-140.79;100.00;63287.88;5042067;28;20531;-53
2022/05/01 06:29:04;;;;;;;5.47;3.30;;;;;;;-140.79;100.00;63287.88;5044204;28;20105;-53
2022/05/01 06:31:29;;;;;;;5.35;2.95;;;;;;;-140.79;100.00;63287.88;5047615;28;20024;-53
2022/05/01 06:33:54;;;;;;;4.20;2.75;;;;;;;-140.79;100.00;63287.88;5047745;28;20529;-54
2022/05/01 06:36:20;;;;;;;3.85;2.70;;;;;;;-140.79;100.00;63287.88;5029962;28;20419;-53
2022/05/01 06:38:46;;;;;;;6.15;2.83;;;;;;;-140.79;100.00;63287.88;5047643;28;20037;-53
2022/05/01 06:41:11;;;;;;;3.38;2.80;;;;;;;-140.79;100.00;63287.88;5047333;28;20041;-54
2022/05/01 06:43:38;;;;;;;4.95;2.97;;;;;;;-140.79;100.00;63287.88;4997161;28;20044;-53
2022/05/01 06:46:04;;;;;;;4.65;2.78;;;;;;;-140.79;100.00;63287.88;5027510;28;20025;-54
2022/05/01 06:48:30;;;;;;;3.85;2.55;;;;;;;-140.79;100.00;63287.88;5028256;28;20029;-53
2022/05/01 06:50:55;;;;;;;4.28;2.92;;;;;;;-140.79;100.00;63287.88;5026089;28;20068;-53
2022/05/01 06:53:21;;;;;;;5.28;2.80;;;;;;;-140.79;100.00;63287.88;5031390;28;20128;-53
2022/05/01 06:55:46;;;;;;;4.22;2.72;;;;;;;-140.79;100.00;63287.88;5028726;28;20401;-53
2022/05/01 06:58:12;;;;;;;5.47;2.90;;;;;;;-140.79;100.00;63287.88;5012873;28;20053;-52
2022/05/01 07:00:37;;;;;;;4.57;3.10;;;;;;;-140.79;100.00;63287.88;5028074;28;20674;-53
2022/05/01 07:03:03;;;;;;;4.20;2.63;;;;;;;-140.79;100.00;63287.88;5030579;28;20025;-55
2022/05/01 07:05:28;;;;;;;6.22;3.10;;;;;;;-140.79;100.00;63287.88;5028768;28;20026;-53
2022/05/01 07:07:54;;;;;;;4.20;3.00;;;;;;;-140.79;100.00;63287.88;5030767;28;20022;-54
2022/05/01 07:10:20;;;;;;;6.15;2.95;;;;;;;-140.79;100.00;63287.88;5012873;28;20033;-54
2022/05/01 07:12:47;;;;;;;6.13;3.17;;;;;;;-140.79;100.00;63287.88;5029159;28;20021;-53
2022/05/01 07:15:12;;;;;;;7.47;3.38;;;;;;;-140.79;100.00;63287.88;5012106;28;20029;-54
2022/05/01 07:17:38;;;;;;;9.40;3.75;;;;;;;-140.79;100.00;63287.88;5029848;28;20029;-53
2022/05/01 07:20:04;;;;;;;4.35;3.15;;;;;;;-140.79;100.00;63287.88;5027555;28;20049;-53
2022/05/01 07:22:29;;;;;;;6.03;3.10;;;;;;;-140.79;100.00;63287.88;5030630;28;20025;-53
2022/05/01 07:24:55;;;;;;;4.88;3.28;;;;;;;-140.79;100.00;63287.88;5039362;28;20036;-53
2022/05/01 07:27:20;;;;;;;4.43;2.75;;;;;;;-140.79;100.00;63287.88;5011167;28;20024;-54
2022/05/01 07:29:46;;;;;;;6.07;3.33;;;;;;;-140.79;100.00;63287.88;5028613;28;20178;-54
2022/05/01 07:32:12;;;;;;;5.53;3.05;;;;;;;-140.79;100.00;63287.88;5026628;28;20021;-54
2022/05/01 07:34:37;;;;;;;6.13;3.13;;;;;;;-140.79;100.00;63287.88;5041768;28;20094;-55
2022/05/01 07:37:03;;;;;;;6.63;3.58;;;;;;;-140.79;100.00;63287.88;5042071;28;20028;-55
2022/05/01 07:39:29;;;;;;;7.05;3.33;;;;;;;-140.79;100.00;63287.88;5006926;28;20467;-53
2022/05/01 07:41:55;;;;;;;7.07;3.10;;;;;;;-140.79;100.00;63287.88;5025597;28;20554;-55
2022/05/01 07:44:20;;;;;;;6.03;3.17;;;;;;;-140.79;100.00;63287.88;5030163;28;20027;-55
2022/05/01 07:46:45;;;;;;;5.13;3.00;;;;;;;-140.79;100.00;63287.88;5029816;28;20153;-54
2022/05/01 07:49:11;;;;;;;6.03;3.22;;;;;;;-140.79;100.00;63287.88;5034772;28;20120;-52
2022/05/01 07:51:37;;;;;;;6.78;3.15;;;;;;;-140.79;100.00;63287.88;5017699;28;20056;-54
2022/05/01 07:54:04;;;;;;;5.68;3.47;;;;;;;-140.79;100.00;63287.88;5030139;28;20074;-54
2022/05/01 07:56:30;;;;;;;5.70;3.30;;;;;;;-140.79;100.00;63287.88;5024629;28;20026;-55
2022/05/01 07:58:55;;;;;;;5.95;3.33;;;;;;;-140.79;100.00;63287.88;5029185;28;20042;-55
2022/05/01 08:01:21;;;;;;;6.00;4.50;;;;;;;-140.79;100.00;63287.88;5028739;28;20025;-54
2022/05/01 08:06:30;;;;;;;7.63;4.80;;;;;;;-140.79;100.00;63287.88;5043739;28;20067;-55
2022/05/01 08:08:56;;;;;;;7.03;4.63;;;;;;;-140.79;100.00;63287.88;5037894;28;20033;-53
2022/05/01 08:11:21;;;;;;;5.25;4.75;;;;;;;-140.79;100.00;63287.88;5035828;28;20067;-53
2022/05/01 08:13:47;;;;;;;5.35;4.25;;;;;;;-140.79;100.00;63287.88;5047576;28;20032;-53
2022/05/01 08:16:13;;;;;;;4.78;4.00;;;;;;;-140.79;100.00;63287.88;5049916;28;20036;-54
2022/05/01 08:21:22;;;;;;;6.28;3.70;;;;;;;-140.79;100.00;63287.88;5060792;28;20048;-55
2022/05/01 08:23:48;;;;;;;5.60;4.03;;;;;;;-140.79;100.00;63287.88;5055729;28;20032;-55
2022/05/01 08:26:14;;;;;;;4.90;4.00;;;;;;;-140.79;100.00;63287.88;5047655;28;20060;-55
2022/05/01 08:28:41;;;;;;;4.05;3.63;;;;;;;-140.79;100.00;63287.88;5047089;28;20044;-55
2022/05/01 08:31:06;;;;;;;4.72;4.20;;;;;;;-140.79;100.00;63287.88;5045539;28;20029;-54
2022/05/01 08:33:32;;;;;;;5.90;3.80;;;;;;;-140.79;100.00;63287.88;5027593;28;20017;-53
2022/05/01 08:35:58;;;;;;;4.18;3.78;;;;;;;-140.79;100.00;63287.88;5040840;28;20504;-55
2022/05/01 08:38:25;;;;;;;8.13;3.80;;;;;;;-140.79;100.00;63287.88;5028449;28;20111;-55
2022/05/01 08:40:51;;;;;;;5.38;3.78;;;;;;;-140.79;100.00;63287.88;5032042;28;20026;-54
2022/05/01 08:43:21;;;;;;;4.20;3.47;;;;;;;-140.79;100.00;63287.88;5026028;28;20055;-54
2022/05/01 08:45:52;;;;;;;4.43;3.33;;;;;;;-140.79;100.00;63287.88;5027755;28;21078;-54
2022/05/01 08:48:25;;;;;;;5.57;3.22;;;;;;;-140.79;100.00;63287.88;5027293;28;20530;-54
2022/05/01 08:50:52;;;;;;;3.97;3.50;;;;;;;-140.79;100.00;63287.88;5027083;28;20111;-53
2022/05/01 08:53:17;;;;;;;5.60;3.40;;;;;;;-140.79;100.00;63287.88;5023477;28;20034;-52
2022/05/01 08:55:43;;;;;;;3.50;3.08;;;;;;;-140.79;100.00;63287.88;5022851;28;20091;-54
2022/05/01 08:58:08;;;;;;;3.10;2.80;;;;;;;-140.79;100.00;63287.88;5007333;28;20521;-54
2022/05/01 09:00:34;;;;;;;3.70;3.10;;;;;;;-140.79;100.00;63287.88;5025083;28;20135;-54
2022/05/01 09:02:59;;;;;;;4.65;3.38;;;;;;;-140.79;100.00;63287.88;5036832;28;20035;-54
2022/05/01 09:05:25;;;;;;;4.03;3.03;;;;;;;-140.79;100.00;63287.88;5008564;28;20036;-53
2022/05/01 09:07:50;;;;;;;6.03;3.20;;;;;;;-140.79;100.00;63287.88;5026374;28;20044;-54
2022/05/01 09:10:16;;;;;;;3.88;3.30;;;;;;;-140.79;100.00;63287.88;5039192;28;20041;-53
2022/05/01 09:12:50;;;;;;;3.80;3.00;;;;;;;-140.79;100.00;63287.88;4992986;28;20033;-54
2022/05/01 09:15:36;;;;;;;4.22;3.13;;;;;;;-140.79;100.00;63287.88;5025801;28;20051;-55
2022/05/01 09:18:04;;;;;;;5.50;3.40;;;;;;;-140.79;100.00;63287.88;5028355;28;20059;-53
2022/05/01 09:20:31;;;;;;;4.13;3.03;;;;;;;-140.79;100.00;63287.88;5025688;28;20033;-54
2022/05/01 09:22:58;;;;;;;3.58;2.83;;;;;;;-140.79;100.00;63287.88;5025449;28;20038;-54
2022/05/01 09:25:26;;;;;;;5.00;3.40;;;;;;;-140.79;100.00;63287.88;5030790;28;20053;-54
2022/05/01 09:27:54;;;;;;;4.35;3.13;;;;;;;-140.79;100.00;63287.88;5043519;28;20041;-53
2022/05/01 09:30:21;;;;;;;4.68;3.67;;;;;;;-140.79;100.00;63287.88;5039909;28;20064;-57
2022/05/01 09:32:47;;;;;;;4.88;3.50;;;;;;;-140.79;100.00;63287.88;5028097;28;20024;-53
2022/05/01 09:35:27;;;;;;;4.07;3.20;;;;;;;-140.79;100.00;63287.88;5027114;28;20034;-56
2022/05/01 09:38:24;;;;;;;4.63;3.20;;;;;;;-140.79;100.00;63287.88;5023561;28;20021;-55
2022/05/01 09:40:58;;;;;;;4.40;3.15;;;;;;;-140.79;100.00;63287.88;5024365;28;20129;-55
2022/05/01 09:43:45;;;;;;;4.32;3.13;;;;;;;-140.79;100.00;63287.88;5023540;28;20017;-54
2022/05/01 09:46:18;;;;;;;3.72;3.08;;;;;;;-140.79;100.00;63287.88;5025527;28;20042;-56
2022/05/01 09:49:03;;;;;;;3.60;2.22;;;;;;;-140.79;100.00;63287.88;5041756;28;20052;-53
2022/05/01 09:51:33;;;;;;;3.42;2.00;;;;;;;-140.79;100.00;63287.88;5042567;28;20657;-53
2022/05/01 09:54:00;;;;;;;4.40;1.90;;;;;;;-140.79;100.00;63287.88;5044010;28;20013;-56
2022/05/01 09:56:25;;;;;;;3.20;1.95;;;;;;;-140.79;100.00;63287.88;5044644;28;20119;-54
2022/05/01 09:58:59;;;;;;;3.15;2.22;;;;;;;-140.79;100.00;63287.88;5041609;28;20037;-54
2022/05/01 10:01:25;;;;;;;6.65;4.03;;;;;;;-140.79;100.00;63287.88;5024922;28;20098;-54
2022/05/01 10:03:52;;;;;;;5.22;3.00;;;;;;;-140.79;100.00;63287.88;5042910;28;20555;-55
2022/05/01 10:06:18;;;;;;;5.63;2.92;;;;;;;-140.79;100.00;63287.88;5045153;28;20022;-54
2022/05/01 10:08:44;;;;;;;2.83;1.80;;;;;;;-140.79;100.00;63287.88;5028709;28;20037;-53
2022/05/01 10:11:14;;;;;;;2.83;1.80;;;;;;;-140.79;100.00;63287.88;5035168;28;20020;-53
2022/05/01 10:13:39;;;;;;;2.90;1.80;;;;;;;-140.79;100.00;63287.88;5049667;28;20017;-54
2022/05/01 10:16:11;;;;;;;3.50;1.60;;;;;;;-140.79;100.00;63287.88;5029185;28;20036;-53
2022/05/01 10:18:37;;;;;;;3.72;1.65;;;;;;;-140.79;100.00;63287.88;5039041;28;20511;-56
2022/05/01 10:21:04;;;;;;;3.20;1.83;;;;;;;-140.79;100.00;63287.88;5037127;28;20064;-54
2022/05/01 10:23:30;;;;;;;3.22;1.65;;;;;;;-140.79;100.00;63287.88;5008150;28;20090;-54
2022/05/01 10:26:06;;;;;;;3.47;1.80;;;;;;;-140.79;100.00;63287.88;5026949;28;20072;-56
2022/05/01 10:28:43;;;;;;;3.22;1.58;;;;;;;-140.79;100.00;63287.88;5011316;28;20037;-56
2022/05/01 10:34:49;;;;;;;2.88;1.80;;;;;;;-140.79;100.00;63287.88;5039339;28;20273;-56
2022/05/01 10:37:39;;;;;;;2.53;1.83;;;;;;;-140.79;100.00;63287.88;5026124;28;20037;-53
2022/05/01 10:40:06;;;;;;;2.17;1.70;;;;;;;-140.79;100.00;63287.88;4994728;28;20704;-53
2022/05/01 10:42:45;;;;;;;3.10;1.80;;;;;;;-140.79;100.00;63287.88;5011556;28;20029;-54
2022/05/01 10:45:23;;;;;;;2.95;1.95;;;;;;;-140.79;100.00;63287.88;5029263;28;20071;-53
2022/05/01 10:47:50;;;;;;;4.72;2.05;;;;;;;-140.79;100.00;63287.88;5026000;28;20029;-52
2022/05/01 10:50:24;;;;;;;3.15;2.10;;;;;;;-140.79;100.00;63287.88;5012443;28;20063;-51
2022/05/01 10:53:04;;;;;;;3.03;1.83;;;;;;;-140.79;100.00;63287.88;5025439;28;20104;-51
2022/05/01 10:55:51;;;;;;;3.42;2.00;;;;;;;-140.79;100.00;63287.88;5007171;28;20033;-50
2022/05/01 10:58:25;;;;;;;2.40;1.80;;;;;;;-140.79;100.00;63287.88;5026075;28;20091;-53
2022/05/01 11:00:51;;;;;;;2.65;1.92;;;;;;;-140.79;100.00;63287.88;5025934;28;20041;-52
2022/05/01 11:03:23;;;;;;;2.65;2.17;;;;;;;-140.79;100.00;63287.88;5030334;28;20471;-52
2022/05/01 11:05:52;;;;;;;2.55;2.00;;;;;;;-140.79;100.00;63287.88;5025952;28;20025;-52
2022/05/01 11:08:24;;;;;;;2.42;1.95;;;;;;;-140.79;100.00;63287.88;5022938;28;20083;-53
2022/05/01 11:10:50;;;;;;;2.28;1.80;;;;;;;-140.79;100.00;63287.88;5030109;28;20069;-51
2022/05/01 11:13:19;;;;;;;2.78;1.70;;;;;;;-140.79;100.00;63287.88;4991447;28;20040;-53
2022/05/01 11:15:49;;;;;;;3.03;1.70;;;;;;;-140.79;100.00;63287.88;5006630;28;20558;-53
2022/05/01 11:18:15;;;;;;;2.90;1.80;;;;;;;-140.79;100.00;63287.88;5026574;28;20032;-53
2022/05/01 11:20:41;;;;;;;2.03;1.58;;;;;;;-140.79;100.00;63287.88;5027294;28;20124;-54
2022/05/01 11:23:26;;;;;;;2.33;1.70;;;;;;;-140.79;100.00;63287.88;5012730;28;20052;-55
2022/05/01 11:25:52;;;;;;;2.83;1.85;;;;;;;-140.79;100.00;63287.88;5028402;28;20416;-53
2022/05/01 11:28:45;;;;;;;2.45;1.70;;;;;;;-140.79;100.00;63287.88;4991483;28;20717;-54
2022/05/01 11:31:35;;;;;;;2.78;1.83;;;;;;;-140.79;100.00;63287.88;5029508;28;20495;-53
2022/05/01 11:34:16;;;;;;;1.83;1.40;;;;;;;-140.79;100.00;63287.88;5025128;28;20059;-54
2022/05/01 11:36:57;;;;;;;2.35;1.75;;;;;;;-140.79;100.00;63287.88;5024928;28;20033;-56
2022/05/01 11:39:43;;;;;;;3.47;1.60;;;;;;;-140.79;100.00;63287.88;5041058;28;20032;-54
2022/05/01 11:42:27;;;;;;;2.22;1.67;;;;;;;-140.79;100.00;63287.88;5002812;28;20083;-55
2022/05/01 11:44:56;;;;;;;2.72;1.60;;;;;;;-140.79;100.00;63287.88;5039587;28;20040;-54